sensor_id;sensor_type;location;lat;lon;timestamp;pressure;altitude;pressure_sealevel;temperature;humidity
9746;BME280;4912;50.836;12.958;2023-02-26T00:02:16;97202.34;;;0.78;100.00
9746;BME280;4912;50.836;12.958;2023-02-26T00:04:46;97203.47;;;0.80;100.00
9746;BME280;4912;50.836;12.958;2023-02-26T00:07:20;97214.34;;;0.80;100.00
9746;BME280;4912;50.836;12.958;2023-02-26T00:09:55;97216.72;;;0.78;99.75
9746;BME280;4912;50.836;12.958;2023-02-26T00:12:27;97212.44;;;0.77;99.56
9746;BME280;4912;50.836;12.958;2023-02-26T00:14:58;97217.13;;;0.77;98.93
9746;BME280;4912;50.836;12.958;2023-02-26T00:17:34;97217.09;;;0.80;98.12
9746;BME280;4912;50.836;12.958;2023-02-26T00:20:09;97225.59;;;0.82;98.38
9746;BME280;4912;50.836;12.958;2023-02-26T00:22:45;97225.66;;;0.79;97.82
9746;BME280;4912;50.836;12.958;2023-02-26T00:25:16;97224.88;;;0.78;97.58
9746;BME280;4912;50.836;12.958;2023-02-26T00:27:46;97230.00;;;0.76;97.49
9746;BME280;4912;50.836;12.958;2023-02-26T00:30:17;97235.78;;;0.78;97.90
9746;BME280;4912;50.836;12.958;2023-02-26T00:32:49;97232.56;;;0.83;97.85
9746;BME280;4912;50.836;12.958;2023-02-26T00:35:19;97237.97;;;0.87;97.27
9746;BME280;4912;50.836;12.958;2023-02-26T00:37:57;97235.72;;;0.82;96.71
9746;BME280;4912;50.836;12.958;2023-02-26T00:40:32;97235.84;;;0.75;96.60
9746;BME280;4912;50.836;12.958;2023-02-26T00:43:05;97242.00;;;0.79;96.65
9746;BME280;4912;50.836;12.958;2023-02-26T00:45:37;97236.19;;;0.77;96.55
9746;BME280;4912;50.836;12.958;2023-02-26T00:48:14;97237.72;;;0.78;96.67
9746;BME280;4912;50.836;12.958;2023-02-26T00:50:52;97240.13;;;0.76;95.78
9746;BME280;4912;50.836;12.958;2023-02-26T00:53:30;97243.63;;;0.76;95.88
9746;BME280;4912;50.836;12.958;2023-02-26T00:56:04;97246.34;;;0.76;96.00
9746;BME280;4912;50.836;12.958;2023-02-26T00:58:34;97253.72;;;0.76;95.71
9746;BME280;4912;50.836;12.958;2023-02-26T01:01:04;97253.00;;;0.72;96.05
9746;BME280;4912;50.836;12.958;2023-02-26T01:03:34;97250.75;;;0.67;96.49
9746;BME280;4912;50.836;12.958;2023-02-26T01:06:08;97251.47;;;0.71;96.77
9746;BME280;4912;50.836;12.958;2023-02-26T01:08:43;97258.44;;;0.72;96.80
9746;BME280;4912;50.836;12.958;2023-02-26T01:11:19;97258.44;;;0.72;96.95
9746;BME280;4912;50.836;12.958;2023-02-26T01:13:49;97256.97;;;0.67;97.20
9746;BME280;4912;50.836;12.958;2023-02-26T01:16:20;97255.03;;;0.68;97.49
9746;BME280;4912;50.836;12.958;2023-02-26T01:18:55;97258.59;;;0.65;98.04
9746;BME280;4912;50.836;12.958;2023-02-26T01:21:35;97253.16;;;0.65;98.96
9746;BME280;4912;50.836;12.958;2023-02-26T01:24:10;97259.06;;;0.60;99.03
9746;BME280;4912;50.836;12.958;2023-02-26T01:26:43;97254.75;;;0.62;99.87
9746;BME280;4912;50.836;12.958;2023-02-26T01:29:15;97259.34;;;0.65;100.00
9746;BME280;4912;50.836;12.958;2023-02-26T01:31:48;97265.56;;;0.66;100.00
9746;BME280;4912;50.836;12.958;2023-02-26T01:34:21;97258.88;;;0.70;100.00
9746;BME280;4912;50.836;12.958;2023-02-26T01:36:55;97258.53;;;0.68;100.00
9746;BME280;4912;50.836;12.958;2023-02-26T01:39:34;97263.56;;;0.70;100.00
9746;BME280;4912;50.836;12.958;2023-02-26T01:42:10;97260.41;;;0.71;100.00
9746;BME280;4912;50.836;12.958;2023-02-26T01:44:49;97251.41;;;0.74;100.00
9746;BME280;4912;50.836;12.958;2023-02-26T01:47:26;97254.91;;;0.75;100.00
9746;BME280;4912;50.836;12.958;2023-02-26T01:50:01;97261.16;;;0.72;100.00
9746;BME280;4912;50.836;12.958;2023-02-26T01:55:47;97266.91;;;0.77;100.00
9746;BME280;4912;50.836;12.958;2023-02-26T01:58:19;97279.69;;;0.80;100.00
9746;BME280;4912;50.836;12.958;2023-02-26T02:00:50;97276.91;;;0.84;100.00
9746;BME280;4912;50.836;12.958;2023-02-26T02:03:20;97276.84;;;0.88;100.00
9746;BME280;4912;50.836;12.958;2023-02-26T02:05:53;97272.59;;;0.87;100.00
9746;BME280;4912;50.836;12.958;2023-02-26T02:08:25;97279.16;;;0.89;99.92
9746;BME280;4912;50.836;12.958;2023-02-26T02:10:59;97279.50;;;0.91;98.96
9746;BME280;4912;50.836;12.958;2023-02-26T02:13:34;97272.94;;;0.89;99.22
9746;BME280;4912;50.836;12.958;2023-02-26T02:16:13;97272.88;;;0.92;99.46
9746;BME280;4912;50.836;12.958;2023-02-26T02:18:50;97279.88;;;0.93;99.79
9746;BME280;4912;50.836;12.958;2023-02-26T02:21:27;97280.19;;;0.95;99.61
9746;BME280;4912;50.836;12.958;2023-02-26T02:24:03;97280.94;;;0.99;99.54
9746;BME280;4912;50.836;12.958;2023-02-26T02:26:47;97286.72;;;1.01;99.53
9746;BME280;4912;50.836;12.958;2023-02-26T02:29:32;97291.06;;;0.99;98.72
9746;BME280;4912;50.836;12.958;2023-02-26T02:32:17;97302.28;;;1.01;98.61
9746;BME280;4912;50.836;12.958;2023-02-26T02:34:51;97290.97;;;1.02;98.61
9746;BME280;4912;50.836;12.958;2023-02-26T02:37:24;97302.22;;;1.04;98.52
9746;BME280;4912;50.836;12.958;2023-02-26T02:39:59;97307.69;;;1.04;98.60
9746;BME280;4912;50.836;12.958;2023-02-26T02:42:32;97301.09;;;1.02;98.68
9746;BME280;4912;50.836;12.958;2023-02-26T02:45:07;97301.09;;;1.02;98.98
9746;BME280;4912;50.836;12.958;2023-02-26T02:47:42;97303.91;;;0.98;97.63
9746;BME280;4912;50.836;12.958;2023-02-26T02:50:15;97315.13;;;1.00;98.03
9746;BME280;4912;50.836;12.958;2023-02-26T02:52:50;97317.03;;;1.03;98.11
9746;BME280;4912;50.836;12.958;2023-02-26T02:55:23;97316.19;;;1.06;98.38
9746;BME280;4912;50.836;12.958;2023-02-26T02:57:57;97323.94;;;1.08;98.56
9746;BME280;4912;50.836;12.958;2023-02-26T03:00:29;97320.94;;;1.02;97.71
9746;BME280;4912;50.836;12.958;2023-02-26T03:03:05;97328.34;;;1.02;98.33
9746;BME280;4912;50.836;12.958;2023-02-26T03:05:39;97334.16;;;1.04;98.60
9746;BME280;4912;50.836;12.958;2023-02-26T03:08:09;97333.00;;;1.01;99.26
9746;BME280;4912;50.836;12.958;2023-02-26T03:10:45;97336.09;;;1.03;99.00
9746;BME280;4912;50.836;12.958;2023-02-26T03:13:17;97346.50;;;1.08;98.69
9746;BME280;4912;50.836;12.958;2023-02-26T03:15:57;97348.06;;;1.09;98.30
9746;BME280;4912;50.836;12.958;2023-02-26T03:18:40;97360.13;;;1.08;98.10
9746;BME280;4912;50.836;12.958;2023-02-26T03:21:19;97356.75;;;1.01;98.77
9746;BME280;4912;50.836;12.958;2023-02-26T03:23:53;97369.16;;;1.05;98.89
9746;BME280;4912;50.836;12.958;2023-02-26T03:26:30;97368.66;;;1.10;98.50
9746;BME280;4912;50.836;12.958;2023-02-26T03:29:05;97363.16;;;1.14;98.41
9746;BME280;4912;50.836;12.958;2023-02-26T03:31:40;97374.81;;;1.14;98.45
9746;BME280;4912;50.836;12.958;2023-02-26T03:34:20;97379.09;;;1.15;98.26
9746;BME280;4912;50.836;12.958;2023-02-26T03:36:55;97385.59;;;1.21;98.43
9746;BME280;4912;50.836;12.958;2023-02-26T03:39:28;97389.50;;;1.20;97.88
9746;BME280;4912;50.836;12.958;2023-02-26T03:42:01;97391.81;;;1.22;97.96
9746;BME280;4912;50.836;12.958;2023-02-26T03:44:46;97398.44;;;1.21;98.27
9746;BME280;4912;50.836;12.958;2023-02-26T03:47:18;97407.81;;;1.20;98.49
9746;BME280;4912;50.836;12.958;2023-02-26T03:49:55;97406.91;;;1.27;98.11
9746;BME280;4912;50.836;12.958;2023-02-26T03:52:31;97412.00;;;1.24;97.79
9746;BME280;4912;50.836;12.958;2023-02-26T03:55:15;97413.22;;;1.23;97.86
9746;BME280;4912;50.836;12.958;2023-02-26T03:58:07;97410.03;;;1.25;97.54
9746;BME280;4912;50.836;12.958;2023-02-26T04:00:51;97414.78;;;1.21;97.91
9746;BME280;4912;50.836;12.958;2023-02-26T04:03:25;97421.50;;;1.16;97.84
9746;BME280;4912;50.836;12.958;2023-02-26T04:06:00;97432.72;;;1.18;98.30
9746;BME280;4912;50.836;12.958;2023-02-26T04:08:31;97431.84;;;1.25;98.30
9746;BME280;4912;50.836;12.958;2023-02-26T04:11:03;97436.06;;;1.30;97.90
9746;BME280;4912;50.836;12.958;2023-02-26T04:13:36;97444.56;;;1.32;97.56
9746;BME280;4912;50.836;12.958;2023-02-26T04:16:06;97442.69;;;1.29;97.39
9746;BME280;4912;50.836;12.958;2023-02-26T04:18:36;97441.56;;;1.26;97.38
9746;BME280;4912;50.836;12.958;2023-02-26T04:21:12;97450.91;;;1.25;97.46
9746;BME280;4912;50.836;12.958;2023-02-26T04:23:42;97460.28;;;1.24;97.24
9746;BME280;4912;50.836;12.958;2023-02-26T04:26:13;97454.78;;;1.28;97.09
9746;BME280;4912;50.836;12.958;2023-02-26T04:28:44;97456.25;;;1.32;96.86
9746;BME280;4912;50.836;12.958;2023-02-26T04:31:15;97453.72;;;1.21;97.12
9746;BME280;4912;50.836;12.958;2023-02-26T04:33:45;97454.13;;;1.20;97.28
9746;BME280;4912;50.836;12.958;2023-02-26T04:36:18;97458.75;;;1.23;97.37
9746;BME280;4912;50.836;12.958;2023-02-26T04:38:48;97470.88;;;1.18;97.84
9746;BME280;4912;50.836;12.958;2023-02-26T04:41:19;97463.84;;;1.21;97.85
9746;BME280;4912;50.836;12.958;2023-02-26T04:43:49;97465.09;;;1.16;98.01
9746;BME280;4912;50.836;12.958;2023-02-26T04:46:24;97475.56;;;1.18;98.42
9746;BME280;4912;50.836;12.958;2023-02-26T04:48:54;97475.13;;;1.19;98.70
9746;BME280;4912;50.836;12.958;2023-02-26T04:51:27;97471.25;;;1.20;98.38
9746;BME280;4912;50.836;12.958;2023-02-26T04:53:57;97484.97;;;1.13;98.32
9746;BME280;4912;50.836;12.958;2023-02-26T04:56:27;97484.94;;;1.17;98.59
9746;BME280;4912;50.836;12.958;2023-02-26T04:58:59;97491.00;;;1.24;98.50
9746;BME280;4912;50.836;12.958;2023-02-26T05:01:30;97492.22;;;1.23;98.29
9746;BME280;4912;50.836;12.958;2023-02-26T05:04:01;97495.66;;;1.28;98.49
9746;BME280;4912;50.836;12.958;2023-02-26T05:06:35;97495.34;;;1.22;98.56
9746;BME280;4912;50.836;12.958;2023-02-26T05:09:05;97505.06;;;1.23;98.64
9746;BME280;4912;50.836;12.958;2023-02-26T05:11:36;97507.84;;;1.19;98.66
9746;BME280;4912;50.836;12.958;2023-02-26T05:14:06;97518.41;;;1.17;99.06
9746;BME280;4912;50.836;12.958;2023-02-26T05:16:36;97523.38;;;1.22;99.30
9746;BME280;4912;50.836;12.958;2023-02-26T05:19:07;97517.16;;;1.22;99.14
9746;BME280;4912;50.836;12.958;2023-02-26T05:21:40;97523.38;;;1.22;98.75
9746;BME280;4912;50.836;12.958;2023-02-26T05:24:10;97523.31;;;1.26;98.52
9746;BME280;4912;50.836;12.958;2023-02-26T05:26:40;97521.28;;;1.30;98.30
9746;BME280;4912;50.836;12.958;2023-02-26T05:29:10;97518.22;;;1.28;98.09
9746;BME280;4912;50.836;12.958;2023-02-26T05:31:40;97528.34;;;1.28;98.12
9746;BME280;4912;50.836;12.958;2023-02-26T05:34:10;97533.84;;;1.24;98.09
9746;BME280;4912;50.836;12.958;2023-02-26T05:36:43;97541.22;;;1.27;98.19
9746;BME280;4912;50.836;12.958;2023-02-26T05:39:13;97547.78;;;1.30;98.01
9746;BME280;4912;50.836;12.958;2023-02-26T05:41:43;97546.56;;;1.34;97.66
9746;BME280;4912;50.836;12.958;2023-02-26T05:44:14;97559.03;;;1.32;97.23
9746;BME280;4912;50.836;12.958;2023-02-26T05:46:44;97556.31;;;1.32;97.55
9746;BME280;4912;50.836;12.958;2023-02-26T05:49:14;97557.09;;;1.32;96.58
9746;BME280;4912;50.836;12.958;2023-02-26T05:51:47;97564.97;;;1.27;97.20
9746;BME280;4912;50.836;12.958;2023-02-26T05:54:17;97572.41;;;1.22;96.80
9746;BME280;4912;50.836;12.958;2023-02-26T05:56:47;97577.44;;;1.24;97.36
9746;BME280;4912;50.836;12.958;2023-02-26T05:59:17;97578.59;;;1.27;97.54
9746;BME280;4912;50.836;12.958;2023-02-26T06:01:47;97587.59;;;1.23;97.24
9746;BME280;4912;50.836;12.958;2023-02-26T06:04:17;97592.88;;;1.34;97.16
9746;BME280;4912;50.836;12.958;2023-02-26T06:06:50;97593.53;;;1.42;97.58
9746;BME280;4912;50.836;12.958;2023-02-26T06:09:20;97605.97;;;1.43;96.99
9746;BME280;4912;50.836;12.958;2023-02-26T06:11:50;97610.25;;;1.44;96.72
9746;BME280;4912;50.836;12.958;2023-02-26T06:14:20;97614.16;;;1.43;96.57
9746;BME280;4912;50.836;12.958;2023-02-26T06:16:50;97618.91;;;1.39;96.82
9746;BME280;4912;50.836;12.958;2023-02-26T06:19:20;97619.97;;;1.45;97.44
9746;BME280;4912;50.836;12.958;2023-02-26T06:21:53;97632.00;;;1.47;96.76
9746;BME280;4912;50.836;12.958;2023-02-26T06:24:23;97640.25;;;1.44;96.45
9746;BME280;4912;50.836;12.958;2023-02-26T06:26:53;97631.56;;;1.52;96.44
9746;BME280;4912;50.836;12.958;2023-02-26T06:29:23;97638.50;;;1.57;95.65
9746;BME280;4912;50.836;12.958;2023-02-26T06:31:53;97640.03;;;1.58;95.34
9746;BME280;4912;50.836;12.958;2023-02-26T06:34:24;97643.94;;;1.57;95.30
9746;BME280;4912;50.836;12.958;2023-02-26T06:36:57;97654.78;;;1.60;95.28
9746;BME280;4912;50.836;12.958;2023-02-26T06:39:27;97664.88;;;1.63;95.43
9746;BME280;4912;50.836;12.958;2023-02-26T06:41:57;97653.22;;;1.63;94.97
9746;BME280;4912;50.836;12.958;2023-02-26T06:44:27;97657.47;;;1.64;95.27
9746;BME280;4912;50.836;12.958;2023-02-26T06:46:57;97670.69;;;1.65;95.32
9746;BME280;4912;50.836;12.958;2023-02-26T06:49:27;97670.69;;;1.65;95.43
9746;BME280;4912;50.836;12.958;2023-02-26T06:52:00;97683.50;;;1.69;95.25
9746;BME280;4912;50.836;12.958;2023-02-26T06:54:30;97682.69;;;1.72;94.99
9746;BME280;4912;50.836;12.958;2023-02-26T06:57:00;97688.56;;;1.70;95.03
9746;BME280;4912;50.836;12.958;2023-02-26T06:59:30;97695.22;;;1.65;95.12
9746;BME280;4912;50.836;12.958;2023-02-26T07:02:00;97698.31;;;1.68;95.01
9746;BME280;4912;50.836;12.958;2023-02-26T07:04:30;97699.88;;;1.69;95.02
9746;BME280;4912;50.836;12.958;2023-02-26T07:07:03;97706.91;;;1.66;95.21
9746;BME280;4912;50.836;12.958;2023-02-26T07:09:33;97704.94;;;1.70;94.97
9746;BME280;4912;50.836;12.958;2023-02-26T07:12:03;97716.25;;;1.65;94.51
9746;BME280;4912;50.836;12.958;2023-02-26T07:14:35;97722.50;;;1.65;94.90
9746;BME280;4912;50.836;12.958;2023-02-26T07:17:05;97730.28;;;1.67;94.75
9746;BME280;4912;50.836;12.958;2023-02-26T07:19:35;97737.97;;;1.76;94.30
9746;BME280;4912;50.836;12.958;2023-02-26T07:22:07;97736.31;;;1.82;93.23
9746;BME280;4912;50.836;12.958;2023-02-26T07:24:37;97744.50;;;1.82;92.92
9746;BME280;4912;50.836;12.958;2023-02-26T07:27:08;97738.66;;;1.80;92.69
9746;BME280;4912;50.836;12.958;2023-02-26T07:29:38;97740.25;;;1.77;93.26
9746;BME280;4912;50.836;12.958;2023-02-26T07:32:08;97750.44;;;1.73;93.30
9746;BME280;4912;50.836;12.958;2023-02-26T07:34:38;97758.22;;;1.75;93.25
9746;BME280;4912;50.836;12.958;2023-02-26T07:37:11;97760.50;;;1.80;92.68
9746;BME280;4912;50.836;12.958;2023-02-26T07:39:41;97769.03;;;1.82;92.29
9746;BME280;4912;50.836;12.958;2023-02-26T07:42:11;97776.09;;;1.79;92.01
9746;BME280;4912;50.836;12.958;2023-02-26T07:44:41;97776.00;;;1.86;92.08
9746;BME280;4912;50.836;12.958;2023-02-26T07:47:12;97778.72;;;1.86;91.88
9746;BME280;4912;50.836;12.958;2023-02-26T07:49:43;97782.91;;;1.94;91.22
9746;BME280;4912;50.836;12.958;2023-02-26T07:52:16;97783.94;;;2.04;91.20
9746;BME280;4912;50.836;12.958;2023-02-26T07:54:46;97788.59;;;2.03;91.03
9746;BME280;4912;50.836;12.958;2023-02-26T07:57:16;97793.19;;;2.10;90.56
9746;BME280;4912;50.836;12.958;2023-02-26T07:59:46;97792.66;;;2.19;89.83
9746;BME280;4912;50.836;12.958;2023-02-26T08:02:16;97795.31;;;2.26;89.40
9746;BME280;4912;50.836;12.958;2023-02-26T08:04:46;97799.09;;;2.32;88.76
9746;BME280;4912;50.836;12.958;2023-02-26T08:07:19;97802.53;;;2.36;88.14
9746;BME280;4912;50.836;12.958;2023-02-26T08:09:49;97802.53;;;2.36;87.60
9746;BME280;4912;50.836;12.958;2023-02-26T08:12:19;97808.00;;;2.36;87.52
9746;BME280;4912;50.836;12.958;2023-02-26T08:14:49;97808.75;;;2.40;87.09
9746;BME280;4912;50.836;12.958;2023-02-26T08:17:19;97814.03;;;2.51;86.90
9746;BME280;4912;50.836;12.958;2023-02-26T08:19:49;97820.94;;;2.59;86.42
9746;BME280;4912;50.836;12.958;2023-02-26T08:22:22;97816.97;;;2.63;85.96
9746;BME280;4912;50.836;12.958;2023-02-26T08:24:52;97820.88;;;2.62;85.10
9746;BME280;4912;50.836;12.958;2023-02-26T08:27:22;97832.16;;;2.64;85.11
9746;BME280;4912;50.836;12.958;2023-02-26T08:29:52;97833.25;;;2.70;84.63
9746;BME280;4912;50.836;12.958;2023-02-26T08:32:22;97832.03;;;2.71;83.69
9746;BME280;4912;50.836;12.958;2023-02-26T08:34:54;97836.28;;;2.76;82.95
9746;BME280;4912;50.836;12.958;2023-02-26T08:37:26;97838.53;;;2.81;83.47
9746;BME280;4912;50.836;12.958;2023-02-26T08:39:56;97837.56;;;2.91;82.87
9746;BME280;4912;50.836;12.958;2023-02-26T08:42:26;97840.19;;;2.98;82.07
9746;BME280;4912;50.836;12.958;2023-02-26T08:44:56;97845.59;;;3.02;81.78
9746;BME280;4912;50.836;12.958;2023-02-26T08:47:27;97847.09;;;3.06;80.98
9746;BME280;4912;50.836;12.958;2023-02-26T08:49:58;97855.03;;;3.20;80.65
9746;BME280;4912;50.836;12.958;2023-02-26T08:52:31;97857.84;;;3.37;80.60
9746;BME280;4912;50.836;12.958;2023-02-26T08:55:01;97863.75;;;3.55;79.16
9746;BME280;4912;50.836;12.958;2023-02-26T08:57:32;97864.28;;;3.69;78.02
9746;BME280;4912;50.836;12.958;2023-02-26T09:00:02;97863.44;;;3.72;76.21
9746;BME280;4912;50.836;12.958;2023-02-26T09:02:36;97864.28;;;3.69;74.60
9746;BME280;4912;50.836;12.958;2023-02-26T09:05:06;97876.19;;;3.79;73.54
9746;BME280;4912;50.836;12.958;2023-02-26T09:07:40;97864.91;;;3.97;72.80
9746;BME280;4912;50.836;12.958;2023-02-26T09:10:12;97877.03;;;4.16;71.27
9746;BME280;4912;50.836;12.958;2023-02-26T09:12:42;97888.09;;;4.28;71.06
9746;BME280;4912;50.836;12.958;2023-02-26T09:15:13;97890.53;;;4.42;70.22
9746;BME280;4912;50.836;12.958;2023-02-26T09:17:44;97894.56;;;4.54;70.29
9746;BME280;4912;50.836;12.958;2023-02-26T09:20:14;97896.66;;;4.66;70.31
9746;BME280;4912;50.836;12.958;2023-02-26T09:22:47;97906.50;;;4.64;69.43
9746;BME280;4912;50.836;12.958;2023-02-26T09:25:17;97902.75;;;4.74;67.76
9746;BME280;4912;50.836;12.958;2023-02-26T09:27:47;97918.00;;;4.91;66.90
9746;BME280;4912;50.836;12.958;2023-02-26T09:30:17;97915.97;;;5.11;66.63
9746;BME280;4912;50.836;12.958;2023-02-26T09:32:48;97923.00;;;5.12;66.18
9746;BME280;4912;50.836;12.958;2023-02-26T09:35:18;97923.84;;;5.09;65.81
9746;BME280;4912;50.836;12.958;2023-02-26T09:37:50;97928.97;;;5.07;65.58
9746;BME280;4912;50.836;12.958;2023-02-26T09:40:23;97931.41;;;5.05;65.12
9746;BME280;4912;50.836;12.958;2023-02-26T09:43:01;97935.75;;;4.86;65.38
9746;BME280;4912;50.836;12.958;2023-02-26T09:45:37;97939.59;;;4.89;65.77
9746;BME280;4912;50.836;12.958;2023-02-26T09:48:10;97943.44;;;4.75;65.46
9746;BME280;4912;50.836;12.958;2023-02-26T09:50:45;97951.25;;;4.77;66.79
9746;BME280;4912;50.836;12.958;2023-02-26T09:53:19;97944.22;;;4.76;66.97
9746;BME280;4912;50.836;12.958;2023-02-26T09:55:52;97945.69;;;4.61;66.61
9746;BME280;4912;50.836;12.958;2023-02-26T09:58:26;97947.25;;;4.62;66.99
9746;BME280;4912;50.836;12.958;2023-02-26T10:01:00;97959.34;;;4.64;66.94
9746;BME280;4912;50.836;12.958;2023-02-26T10:03:36;97960.81;;;4.49;67.17
9746;BME280;4912;50.836;12.958;2023-02-26T10:06:14;97962.25;;;4.37;67.85
9746;BME280;4912;50.836;12.958;2023-02-26T10:09:05;97971.53;;;4.24;68.06
9746;BME280;4912;50.836;12.958;2023-02-26T10:11:45;97974.00;;;4.18;68.74
9746;BME280;4912;50.836;12.958;2023-02-26T10:14:21;97975.44;;;4.03;67.82
9746;BME280;4912;50.836;12.958;2023-02-26T10:16:55;97970.59;;;3.91;69.63
9746;BME280;4912;50.836;12.958;2023-02-26T10:19:29;97986.72;;;3.85;70.33
9746;BME280;4912;50.836;12.958;2023-02-26T10:22:03;97987.41;;;3.69;71.35
9746;BME280;4912;50.836;12.958;2023-02-26T10:24:47;97985.16;;;3.64;72.12
9746;BME280;4912;50.836;12.958;2023-02-26T10:27:19;97993.81;;;3.59;72.17
9746;BME280;4912;50.836;12.958;2023-02-26T10:29:56;97988.97;;;3.47;72.15
9746;BME280;4912;50.836;12.958;2023-02-26T10:32:29;97984.69;;;3.46;72.20
9746;BME280;4912;50.836;12.958;2023-02-26T10:35:04;97993.06;;;3.59;71.84
9746;BME280;4912;50.836;12.958;2023-02-26T10:37:40;97992.91;;;3.89;71.61
9746;BME280;4912;50.836;12.958;2023-02-26T10:40:18;97998.63;;;4.18;70.53
9746;BME280;4912;50.836;12.958;2023-02-26T10:42:54;98006.16;;;4.34;70.07
9746;BME280;4912;50.836;12.958;2023-02-26T10:45:29;98011.22;;;4.35;69.30
9746;BME280;4912;50.836;12.958;2023-02-26T10:48:22;98014.28;;;4.37;69.75
9746;BME280;4912;50.836;12.958;2023-02-26T10:50:59;98018.56;;;4.38;69.58
9746;BME280;4912;50.836;12.958;2023-02-26T10:53:30;98017.88;;;4.34;69.01
9746;BME280;4912;50.836;12.958;2023-02-26T10:56:05;98022.31;;;4.28;68.93
9746;BME280;4912;50.836;12.958;2023-02-26T10:58:37;98026.59;;;4.29;69.57
9746;BME280;4912;50.836;12.958;2023-02-26T11:01:09;98024.41;;;4.21;69.21
9746;BME280;4912;50.836;12.958;2023-02-26T11:03:44;98025.16;;;4.21;69.26
9746;BME280;4912;50.836;12.958;2023-02-26T11:06:18;98030.94;;;4.27;69.51
9746;BME280;4912;50.836;12.958;2023-02-26T11:08:50;98031.09;;;4.39;68.41
9746;BME280;4912;50.836;12.958;2023-02-26T11:11:39;98033.06;;;4.39;67.42
9746;BME280;4912;50.836;12.958;2023-02-26T11:14:11;98032.06;;;4.29;66.87
9746;BME280;4912;50.836;12.958;2023-02-26T11:16:42;98033.03;;;4.19;67.36
9746;BME280;4912;50.836;12.958;2023-02-26T11:19:15;98031.13;;;4.16;67.76
9746;BME280;4912;50.836;12.958;2023-02-26T11:21:46;98029.50;;;4.19;68.31
9746;BME280;4912;50.836;12.958;2023-02-26T11:24:20;98032.25;;;4.19;68.49
9746;BME280;4912;50.836;12.958;2023-02-26T11:27:00;98031.34;;;4.25;68.42
9746;BME280;4912;50.836;12.958;2023-02-26T11:29:34;98038.38;;;4.26;68.61
9746;BME280;4912;50.836;12.958;2023-02-26T11:32:10;98036.81;;;4.25;67.75
9746;BME280;4912;50.836;12.958;2023-02-26T11:34:46;98036.13;;;4.21;66.82
9746;BME280;4912;50.836;12.958;2023-02-26T11:37:17;98038.94;;;4.18;67.67
9746;BME280;4912;50.836;12.958;2023-02-26T11:39:49;98035.44;;;4.17;66.43
9746;BME280;4912;50.836;12.958;2023-02-26T11:42:26;98041.03;;;4.10;67.09
9746;BME280;4912;50.836;12.958;2023-02-26T11:44:56;98044.19;;;4.08;67.43
9746;BME280;4912;50.836;12.958;2023-02-26T11:47:27;98034.97;;;4.19;67.45
9746;BME280;4912;50.836;12.958;2023-02-26T11:49:59;98036.91;;;4.22;67.34
9746;BME280;4912;50.836;12.958;2023-02-26T11:52:32;98037.06;;;4.34;66.92
9746;BME280;4912;50.836;12.958;2023-02-26T11:55:04;98041.38;;;4.91;65.63
9746;BME280;4912;50.836;12.958;2023-02-26T11:57:47;98041.22;;;5.99;62.00
9746;BME280;4912;50.836;12.958;2023-02-26T12:00:22;98037.38;;;6.95;58.20
9746;BME280;4912;50.836;12.958;2023-02-26T12:02:59;98039.59;;;7.26;57.03
9746;BME280;4912;50.836;12.958;2023-02-26T12:05:30;98035.84;;;7.07;56.90
9746;BME280;4912;50.836;12.958;2023-02-26T12:08:01;98026.00;;;6.68;57.87
9746;BME280;4912;50.836;12.958;2023-02-26T12:10:35;98043.81;;;6.06;58.03
9746;BME280;4912;50.836;12.958;2023-02-26T12:13:11;98043.13;;;5.69;60.86
9746;BME280;4912;50.836;12.958;2023-02-26T12:15:49;98045.47;;;5.19;61.49
9746;BME280;4912;50.836;12.958;2023-02-26T12:18:29;98045.75;;;4.88;63.41
9746;BME280;4912;50.836;12.958;2023-02-26T12:21:10;98044.28;;;4.64;64.67
9746;BME280;4912;50.836;12.958;2023-02-26T12:24:00;98054.63;;;4.57;65.42
9746;BME280;4912;50.836;12.958;2023-02-26T12:26:44;98051.31;;;4.45;65.39
9746;BME280;4912;50.836;12.958;2023-02-26T12:29:24;98058.25;;;4.50;66.08
9746;BME280;4912;50.836;12.958;2023-02-26T12:32:11;98054.53;;;4.60;65.58
9746;BME280;4912;50.836;12.958;2023-02-26T12:35:01;98050.59;;;4.81;65.36
9746;BME280;4912;50.836;12.958;2023-02-26T12:37:53;98049.16;;;5.12;64.26
9746;BME280;4912;50.836;12.958;2023-02-26T12:40:35;98054.88;;;5.70;62.33
9746;BME280;4912;50.836;12.958;2023-02-26T12:43:14;98054.53;;;6.00;60.71
9746;BME280;4912;50.836;12.958;2023-02-26T12:45:53;98057.97;;;6.33;59.70
9746;BME280;4912;50.836;12.958;2023-02-26T12:51:35;98056.56;;;7.24;57.53
9746;BME280;4912;50.836;12.958;2023-02-26T12:54:16;98060.41;;;7.14;56.98
9746;BME280;4912;50.836;12.958;2023-02-26T12:57:02;98061.47;;;6.91;56.23
9746;BME280;4912;50.836;12.958;2023-02-26T13:06:12;98061.63;;;6.43;57.44
9746;BME280;4912;50.836;12.958;2023-02-26T13:08:51;98070.91;;;6.49;57.58
9746;BME280;4912;50.836;12.958;2023-02-26T13:11:41;98076.63;;;6.54;57.90
9746;BME280;4912;50.836;12.958;2023-02-26T13:14:24;98076.88;;;6.60;57.48
9746;BME280;4912;50.836;12.958;2023-02-26T13:17:00;98078.97;;;6.56;56.51
9746;BME280;4912;50.836;12.958;2023-02-26T13:19:37;98085.13;;;6.60;56.73
9746;BME280;4912;50.836;12.958;2023-02-26T13:22:16;98087.97;;;6.56;56.69
9746;BME280;4912;50.836;12.958;2023-02-26T13:24:50;98082.28;;;6.64;56.69
9746;BME280;4912;50.836;12.958;2023-02-26T13:27:24;98080.88;;;6.72;55.97
9746;BME280;4912;50.836;12.958;2023-02-26T13:30:00;98086.47;;;6.68;56.58
9746;BME280;4912;50.836;12.958;2023-02-26T13:32:35;98094.06;;;6.64;56.62
9746;BME280;4912;50.836;12.958;2023-02-26T13:35:16;98094.59;;;6.59;57.36
9746;BME280;4912;50.836;12.958;2023-02-26T13:37:52;98098.03;;;6.63;57.00
9746;BME280;4912;50.836;12.958;2023-02-26T13:46:25;98092.13;;;7.57;53.11
9746;BME280;4912;50.836;12.958;2023-02-26T13:49:07;98090.81;;;7.23;52.77
9746;BME280;4912;50.836;12.958;2023-02-26T13:51:43;98092.19;;;7.03;53.65
9746;BME280;4912;50.836;12.958;2023-02-26T13:54:32;98088.06;;;6.82;53.56
9746;BME280;4912;50.836;12.958;2023-02-26T13:57:05;98094.53;;;6.75;53.57
9746;BME280;4912;50.836;12.958;2023-02-26T13:59:45;98097.00;;;6.57;54.25
9746;BME280;4912;50.836;12.958;2023-02-26T14:11:32;98100.72;;;6.05;55.73
9746;BME280;4912;50.836;12.958;2023-02-26T14:14:11;98108.59;;;5.87;55.97
9746;BME280;4912;50.836;12.958;2023-02-26T14:16:48;98114.75;;;5.75;52.98
9746;BME280;4912;50.836;12.958;2023-02-26T14:19:27;98108.84;;;5.76;54.13
9746;BME280;4912;50.836;12.958;2023-02-26T14:22:13;98104.97;;;5.74;54.38
9746;BME280;4912;50.836;12.958;2023-02-26T14:24:51;98121.59;;;5.67;53.99
9746;BME280;4912;50.836;12.958;2023-02-26T14:27:32;98116.34;;;5.56;53.53